SBVT/VIX METAR and TAF weather

Enter ICAO airport designator
Station Type Date Time Source
SBVT METAR 2022/06/27 16:00 UTC NOAA

SBVT 271600Z 21013KT 9999 FEW044 25/12 Q1021


Station Type Date Time Source
SBVT Decoded METAR 2022/06/27 16:00 UTC NOAA

Vitoria Aeroporto , Brazil (SBVT) 20-16S 040-17W 4M
Jun 27, 2022 - 12:00 PM EDT / 2022.06.27 1600 UTC
Wind: from the SSW (210 degrees) at 15 MPH (13 KT):0
Visibility: greater than 7 mile(s):0
Sky conditions: mostly clear
Temperature: 77 F (25 C)
Dew Point: 53 F (12 C)
Relative Humidity: 44%
Pressure (altimeter): 30.15 in. Hg (1021 hPa)
ob: SBVT 271600Z 21013KT 9999 FEW044 25/12 Q1021
cycle: 16

Station Type Date Time Source
SBVT TAF 2022/06/27 18:27 UTC NOAA

TAF SBVT 271625Z 2718/2818 18010KT 9999 FEW025 TN17/2809Z TX24/2816Z
BECMG 2720/2723 21007KT
BECMG 2802/2805 25005KT
BECMG 2812/2815 10008KT
RMK PHC

Example: see airport list